N517RG MMZH-MMAN
Flight info
| Callsign | N517RG |
|---|---|
| Flight time | N/A |
| Altitude | 29000 |
| Route | VILTO2B VILTO UJ17 MLM UJ40 SLP UJ31 SLW SLW1D |
| Aircraft | PC12/L-SDFGRWY/S |
Departure
| Time | N/A |
|---|---|
| Airport | Ixtapa-Zihuatanejo International Airport (MMZH) |
Arrival
| Time | 2026-04-25 20:09 |
|---|---|
| Airport | Del Norte International Airport (MMAN) |
| Time | Latitude | Longitude | Altitude | Speed | Heading |
|---|---|---|---|---|---|
| 2026-04-25 19:02 | 22.11039 | -100.99503 | 29097 ft | 278 kts | 15° |
| 2026-04-25 19:02 | 22.12829 | -100.98712 | 29124 ft | 278 kts | 14° |
| 2026-04-25 19:02 | 22.14621 | -100.97920 | 29142 ft | 278 kts | 14° |
| 2026-04-25 19:03 | 22.16989 | -100.96873 | 29173 ft | 278 kts | 14° |
| 2026-04-25 19:03 | 22.19982 | -100.95549 | 29183 ft | 278 kts | 14° |
| 2026-04-25 19:03 | 22.21769 | -100.94758 | 29186 ft | 278 kts | 14° |
| 2026-04-25 19:04 | 22.24743 | -100.93445 | 29179 ft | 276 kts | 13° |
| 2026-04-25 19:04 | 22.26567 | -100.93040 | 29182 ft | 262 kts | 353° |
| 2026-04-25 19:05 | 22.30194 | -100.93050 | 29184 ft | 261 kts | 351° |
| 2026-04-25 19:05 | 22.34421 | -100.93045 | 29183 ft | 262 kts | 352° |
| 2026-04-25 19:05 | 22.36245 | -100.93044 | 29169 ft | 262 kts | 352° |
| 2026-04-25 19:06 | 22.37475 | -100.93045 | 29138 ft | 262 kts | 352° |
| 2026-04-25 19:06 | 22.41127 | -100.93044 | 29093 ft | 263 kts | 352° |
| 2026-04-25 19:06 | 22.42956 | -100.93044 | 29063 ft | 263 kts | 351° |
| 2026-04-25 19:07 | 22.46614 | -100.93042 | 29023 ft | 263 kts | 352° |
| 2026-04-25 19:07 | 22.48442 | -100.93042 | 28997 ft | 262 kts | 351° |
| 2026-04-25 19:08 | 22.52095 | -100.93042 | 28952 ft | 262 kts | 351° |
| 2026-04-25 19:08 | 22.53917 | -100.93041 | 28931 ft | 262 kts | 351° |
| 2026-04-25 19:09 | 22.59370 | -100.93040 | 28858 ft | 262 kts | 351° |
| 2026-04-25 19:09 | 22.60581 | -100.93040 | 28842 ft | 262 kts | 351° |
| 2026-04-25 19:09 | 22.64848 | -100.93039 | 28820 ft | 262 kts | 351° |
| 2026-04-25 19:10 | 22.66674 | -100.93039 | 28822 ft | 262 kts | 351° |
| 2026-04-25 19:10 | 22.68501 | -100.93039 | 28822 ft | 263 kts | 351° |
| 2026-04-25 19:10 | 22.70328 | -100.93038 | 28823 ft | 262 kts | 351° |
| 2026-04-25 19:10 | 22.72154 | -100.93038 | 28821 ft | 262 kts | 351° |
| 2026-04-25 19:11 | 22.73980 | -100.93037 | 28821 ft | 262 kts | 351° |
| 2026-04-25 19:11 | 22.75802 | -100.93037 | 28819 ft | 262 kts | 351° |
| 2026-04-25 19:11 | 22.77627 | -100.93037 | 28818 ft | 262 kts | 351° |
| 2026-04-25 19:11 | 22.79452 | -100.93037 | 28822 ft | 262 kts | 351° |
| 2026-04-25 19:12 | 22.81278 | -100.93036 | 28817 ft | 262 kts | 351° |
| 2026-04-25 19:12 | 22.83102 | -100.93036 | 28818 ft | 262 kts | 351° |
| 2026-04-25 19:12 | 22.84926 | -100.93035 | 28823 ft | 262 kts | 351° |
| 2026-04-25 19:12 | 22.86750 | -100.93035 | 28824 ft | 262 kts | 351° |
| 2026-04-25 19:13 | 22.88574 | -100.93035 | 28823 ft | 262 kts | 351° |
| 2026-04-25 19:13 | 22.90398 | -100.93034 | 28819 ft | 262 kts | 351° |
| 2026-04-25 19:13 | 22.92223 | -100.93034 | 28825 ft | 262 kts | 351° |
| 2026-04-25 19:13 | 22.94049 | -100.93034 | 28822 ft | 263 kts | 351° |
| 2026-04-25 19:14 | 22.95876 | -100.93033 | 28818 ft | 262 kts | 351° |
| 2026-04-25 19:14 | 22.97082 | -100.93033 | 28820 ft | 262 kts | 351° |
| 2026-04-25 19:14 | 22.99523 | -100.93033 | 28828 ft | 262 kts | 351° |
| 2026-04-25 19:14 | 23.01348 | -100.93032 | 28823 ft | 262 kts | 351° |
| 2026-04-25 19:15 | 23.03173 | -100.93032 | 28824 ft | 262 kts | 351° |
| 2026-04-25 19:15 | 23.04995 | -100.93032 | 28828 ft | 262 kts | 351° |
| 2026-04-25 19:15 | 23.06815 | -100.93031 | 28827 ft | 261 kts | 352° |
| 2026-04-25 19:15 | 23.08631 | -100.93030 | 28833 ft | 261 kts | 352° |
| 2026-04-25 19:16 | 23.10446 | -100.93029 | 28827 ft | 262 kts | 351° |
| 2026-04-25 19:16 | 23.12269 | -100.93029 | 28835 ft | 262 kts | 351° |
| 2026-04-25 19:16 | 23.14095 | -100.93029 | 28834 ft | 263 kts | 351° |
| 2026-04-25 19:16 | 23.15900 | -100.93028 | 28832 ft | 263 kts | 351° |
| 2026-04-25 19:17 | 23.17733 | -100.93028 | 28837 ft | 264 kts | 351° |
| 2026-04-25 19:17 | 23.19567 | -100.93027 | 28837 ft | 264 kts | 351° |
| 2026-04-25 19:17 | 23.21420 | -100.93027 | 28840 ft | 263 kts | 351° |
| 2026-04-25 19:17 | 23.23227 | -100.93027 | 28838 ft | 263 kts | 351° |
| 2026-04-25 19:18 | 23.25057 | -100.93027 | 28838 ft | 263 kts | 351° |
| 2026-04-25 19:18 | 23.26885 | -100.93026 | 28842 ft | 263 kts | 351° |
| 2026-04-25 19:18 | 23.28712 | -100.93026 | 28844 ft | 262 kts | 351° |
| 2026-04-25 19:18 | 23.30538 | -100.93026 | 28842 ft | 263 kts | 351° |
| 2026-04-25 19:19 | 23.32366 | -100.93025 | 28844 ft | 263 kts | 351° |
| 2026-04-25 19:19 | 23.34195 | -100.93025 | 28842 ft | 263 kts | 351° |
| 2026-04-25 19:19 | 23.36023 | -100.93024 | 28849 ft | 263 kts | 351° |
| 2026-04-25 19:19 | 23.37231 | -100.93024 | 28841 ft | 263 kts | 351° |
| 2026-04-25 19:20 | 23.39678 | -100.93024 | 28845 ft | 262 kts | 351° |
| 2026-04-25 19:20 | 23.41503 | -100.93023 | 28844 ft | 262 kts | 351° |
| 2026-04-25 19:20 | 23.43323 | -100.93023 | 28850 ft | 262 kts | 351° |
| 2026-04-25 19:20 | 23.45144 | -100.93023 | 28853 ft | 262 kts | 351° |
| 2026-04-25 19:21 | 23.46970 | -100.93023 | 28848 ft | 262 kts | 351° |
| 2026-04-25 19:21 | 23.50629 | -100.93021 | 28847 ft | 263 kts | 351° |
| 2026-04-25 19:21 | 23.52459 | -100.93021 | 28847 ft | 263 kts | 351° |
| 2026-04-25 19:22 | 23.54290 | -100.93021 | 28851 ft | 263 kts | 351° |
| 2026-04-25 19:22 | 23.56120 | -100.93020 | 28849 ft | 263 kts | 351° |
| 2026-04-25 19:22 | 23.59772 | -100.93019 | 28853 ft | 262 kts | 351° |
| 2026-04-25 19:23 | 23.61571 | -100.93019 | 28851 ft | 262 kts | 351° |
| 2026-04-25 19:23 | 23.65240 | -100.93019 | 28851 ft | 262 kts | 351° |
| 2026-04-25 19:23 | 23.67033 | -100.93018 | 28852 ft | 262 kts | 351° |
| 2026-04-25 19:24 | 23.68858 | -100.93018 | 28854 ft | 263 kts | 351° |
| 2026-04-25 19:24 | 23.70686 | -100.93018 | 28854 ft | 262 kts | 351° |
| 2026-04-25 19:24 | 23.74339 | -100.93017 | 28860 ft | 263 kts | 351° |
| 2026-04-25 19:25 | 23.77996 | -100.93016 | 28854 ft | 262 kts | 351° |
| 2026-04-25 19:25 | 23.79822 | -100.93015 | 28853 ft | 262 kts | 351° |
| 2026-04-25 19:25 | 23.81645 | -100.93015 | 28858 ft | 262 kts | 351° |
| 2026-04-25 19:26 | 23.83466 | -100.93015 | 28856 ft | 262 kts | 351° |
| 2026-04-25 19:26 | 23.85286 | -100.93015 | 28858 ft | 261 kts | 351° |
| 2026-04-25 19:26 | 23.87103 | -100.93014 | 28859 ft | 261 kts | 350° |
| 2026-04-25 19:26 | 23.88914 | -100.93014 | 28859 ft | 261 kts | 351° |
| 2026-04-25 19:27 | 23.90727 | -100.93014 | 28859 ft | 260 kts | 351° |
| 2026-04-25 19:27 | 23.91928 | -100.93013 | 28862 ft | 260 kts | 350° |
| 2026-04-25 19:27 | 23.94349 | -100.93013 | 28860 ft | 260 kts | 350° |
| 2026-04-25 19:27 | 23.96161 | -100.93013 | 28864 ft | 260 kts | 350° |
| 2026-04-25 19:28 | 23.97972 | -100.93012 | 28862 ft | 260 kts | 350° |
| 2026-04-25 19:28 | 23.99777 | -100.93012 | 28863 ft | 260 kts | 350° |
| 2026-04-25 19:28 | 24.01586 | -100.93012 | 28862 ft | 260 kts | 350° |
| 2026-04-25 19:28 | 24.03395 | -100.93011 | 28859 ft | 260 kts | 350° |
| 2026-04-25 19:29 | 24.05204 | -100.93011 | 28863 ft | 260 kts | 350° |
| 2026-04-25 19:29 | 24.07012 | -100.93011 | 28859 ft | 260 kts | 350° |
| 2026-04-25 19:29 | 24.08819 | -100.93010 | 28864 ft | 260 kts | 350° |
| 2026-04-25 19:29 | 24.10626 | -100.93010 | 28859 ft | 260 kts | 350° |
| 2026-04-25 19:30 | 24.12410 | -100.93010 | 28862 ft | 260 kts | 350° |
| 2026-04-25 19:30 | 24.14217 | -100.93009 | 28857 ft | 260 kts | 350° |
| 2026-04-25 19:30 | 24.16025 | -100.93009 | 28860 ft | 260 kts | 350° |
| 2026-04-25 19:30 | 24.17833 | -100.93009 | 28862 ft | 260 kts | 350° |
| 2026-04-25 19:31 | 24.19635 | -100.93008 | 28866 ft | 260 kts | 350° |
| 2026-04-25 19:31 | 24.21442 | -100.93008 | 28860 ft | 260 kts | 350° |
| 2026-04-25 19:31 | 24.23250 | -100.93008 | 28858 ft | 260 kts | 350° |
| 2026-04-25 19:31 | 24.25057 | -100.93007 | 28861 ft | 259 kts | 350° |
| 2026-04-25 19:32 | 24.26860 | -100.93006 | 28862 ft | 259 kts | 350° |
| 2026-04-25 19:32 | 24.28662 | -100.93006 | 28865 ft | 259 kts | 350° |
| 2026-04-25 19:32 | 24.30463 | -100.93006 | 28875 ft | 259 kts | 350° |
| 2026-04-25 19:32 | 24.31655 | -100.93006 | 28865 ft | 259 kts | 350° |
| 2026-04-25 19:33 | 24.34061 | -100.93005 | 28861 ft | 258 kts | 350° |
| 2026-04-25 19:33 | 24.35860 | -100.93005 | 28858 ft | 259 kts | 350° |
| 2026-04-25 19:33 | 24.37663 | -100.93005 | 28857 ft | 259 kts | 350° |
| 2026-04-25 19:33 | 24.39465 | -100.93005 | 28857 ft | 259 kts | 350° |
| 2026-04-25 19:34 | 24.41265 | -100.93004 | 28867 ft | 259 kts | 349° |
| 2026-04-25 19:34 | 24.43065 | -100.93004 | 28858 ft | 258 kts | 349° |
| 2026-04-25 19:34 | 24.44864 | -100.93004 | 28861 ft | 258 kts | 350° |
| 2026-04-25 19:34 | 24.46660 | -100.93003 | 28870 ft | 258 kts | 350° |
| 2026-04-25 19:35 | 24.48453 | -100.93002 | 28862 ft | 258 kts | 350° |
| 2026-04-25 19:35 | 24.50247 | -100.93003 | 28868 ft | 258 kts | 349° |
| 2026-04-25 19:35 | 24.52039 | -100.93002 | 28870 ft | 258 kts | 349° |
| 2026-04-25 19:35 | 24.53831 | -100.93002 | 28882 ft | 257 kts | 349° |
| 2026-04-25 19:36 | 24.55616 | -100.93001 | 28871 ft | 257 kts | 349° |
| 2026-04-25 19:36 | 24.57405 | -100.93001 | 28873 ft | 257 kts | 349° |
| 2026-04-25 19:36 | 24.59193 | -100.93001 | 28865 ft | 257 kts | 349° |
| 2026-04-25 19:36 | 24.60985 | -100.93001 | 28873 ft | 258 kts | 349° |
| 2026-04-25 19:37 | 24.62777 | -100.93000 | 28869 ft | 257 kts | 349° |
| 2026-04-25 19:37 | 24.64545 | -100.93000 | 28873 ft | 257 kts | 349° |
| 2026-04-25 19:37 | 24.66335 | -100.92999 | 28880 ft | 257 kts | 349° |
| 2026-04-25 19:37 | 24.68126 | -100.92999 | 28872 ft | 258 kts | 349° |
| 2026-04-25 19:38 | 24.69919 | -100.92999 | 28871 ft | 258 kts | 349° |
| 2026-04-25 19:38 | 24.71711 | -100.92998 | 28870 ft | 258 kts | 349° |
| 2026-04-25 19:38 | 24.73503 | -100.92998 | 28871 ft | 258 kts | 349° |
| 2026-04-25 19:38 | 24.75296 | -100.92998 | 28875 ft | 258 kts | 349° |
| 2026-04-25 19:39 | 24.77085 | -100.92997 | 28872 ft | 258 kts | 349° |
| 2026-04-25 19:39 | 24.78878 | -100.92997 | 28873 ft | 258 kts | 349° |
| 2026-04-25 19:39 | 24.80673 | -100.92997 | 28880 ft | 258 kts | 349° |
| 2026-04-25 19:39 | 24.82470 | -100.92997 | 28877 ft | 258 kts | 349° |
| 2026-04-25 19:40 | 24.84269 | -100.92996 | 28880 ft | 258 kts | 349° |
| 2026-04-25 19:40 | 24.86068 | -100.92996 | 28882 ft | 259 kts | 349° |
| 2026-04-25 19:40 | 24.87868 | -100.92995 | 28883 ft | 259 kts | 349° |
| 2026-04-25 19:40 | 24.89668 | -100.92995 | 28879 ft | 259 kts | 349° |
| 2026-04-25 19:41 | 24.91469 | -100.92995 | 28884 ft | 259 kts | 349° |
| 2026-04-25 19:41 | 24.93270 | -100.92994 | 28877 ft | 259 kts | 349° |
| 2026-04-25 19:41 | 24.95074 | -100.92994 | 28877 ft | 259 kts | 349° |
| 2026-04-25 19:41 | 24.95657 | -100.92994 | 28878 ft | 259 kts | 349° |
| 2026-04-25 19:42 | 24.98671 | -100.92993 | 28881 ft | 258 kts | 349° |
| 2026-04-25 19:42 | 25.00466 | -100.92993 | 28884 ft | 258 kts | 349° |
| 2026-04-25 19:42 | 25.02263 | -100.92993 | 28881 ft | 258 kts | 349° |
| 2026-04-25 19:42 | 25.04033 | -100.92992 | 28883 ft | 258 kts | 349° |
| 2026-04-25 19:43 | 25.05850 | -100.92992 | 28882 ft | 257 kts | 349° |
| 2026-04-25 19:43 | 25.07636 | -100.92991 | 28883 ft | 257 kts | 349° |
| 2026-04-25 19:43 | 25.09403 | -100.92991 | 28882 ft | 258 kts | 349° |
| 2026-04-25 19:43 | 25.11196 | -100.92991 | 28884 ft | 258 kts | 349° |
| 2026-04-25 19:44 | 25.12988 | -100.92991 | 28882 ft | 257 kts | 349° |
| 2026-04-25 19:44 | 25.14777 | -100.92990 | 28886 ft | 257 kts | 349° |
| 2026-04-25 19:44 | 25.16566 | -100.92990 | 28885 ft | 257 kts | 349° |
| 2026-04-25 19:44 | 25.18357 | -100.92990 | 28880 ft | 258 kts | 349° |
| 2026-04-25 19:45 | 25.20150 | -100.92989 | 28887 ft | 257 kts | 349° |
| 2026-04-25 19:45 | 25.21937 | -100.92988 | 28905 ft | 257 kts | 349° |
| 2026-04-25 19:45 | 25.23729 | -100.92989 | 28917 ft | 258 kts | 349° |
| 2026-04-25 19:45 | 25.25530 | -100.92989 | 28927 ft | 259 kts | 349° |
| 2026-04-25 19:46 | 25.27329 | -100.92988 | 28935 ft | 259 kts | 349° |
| 2026-04-25 19:46 | 25.29129 | -100.92987 | 28949 ft | 259 kts | 349° |
| 2026-04-25 19:46 | 25.30930 | -100.92987 | 28963 ft | 259 kts | 349° |
| 2026-04-25 19:46 | 25.32739 | -100.92989 | 28771 ft | 265 kts | 349° |
| 2026-04-25 19:47 | 25.34621 | -100.92995 | 28348 ft | 276 kts | 350° |
| 2026-04-25 19:47 | 25.36564 | -100.92992 | 27935 ft | 281 kts | 350° |
| 2026-04-25 19:47 | 25.38497 | -100.92978 | 27520 ft | 275 kts | 350° |
| 2026-04-25 19:47 | 25.40404 | -100.92976 | 27109 ft | 275 kts | 350° |
| 2026-04-25 19:48 | 25.42323 | -100.92984 | 26710 ft | 277 kts | 350° |
| 2026-04-25 19:48 | 25.44259 | -100.92986 | 26318 ft | 279 kts | 351° |
| 2026-04-25 19:48 | 25.46201 | -100.92982 | 25930 ft | 279 kts | 351° |
| 2026-04-25 19:48 | 25.48143 | -100.92979 | 25533 ft | 279 kts | 351° |
| 2026-04-25 19:49 | 25.50083 | -100.92944 | 25136 ft | 281 kts | 356° |
| 2026-04-25 19:49 | 25.50744 | -100.92820 | 25000 ft | 288 kts | 4° |
| 2026-04-25 19:49 | 25.53607 | -100.90744 | 24341 ft | 315 kts | 46° |
| 2026-04-25 19:49 | 25.54547 | -100.88528 | 23952 ft | 325 kts | 73° |
| 2026-04-25 19:50 | 25.54722 | -100.83532 | 23114 ft | 324 kts | 90° |
| 2026-04-25 19:50 | 25.54691 | -100.81042 | 22662 ft | 322 kts | 88° |
| 2026-04-25 19:50 | 25.54713 | -100.78565 | 22209 ft | 322 kts | 87° |
| 2026-04-25 19:51 | 25.54752 | -100.76093 | 21766 ft | 321 kts | 88° |
| 2026-04-25 19:51 | 25.54772 | -100.73622 | 21251 ft | 322 kts | 88° |
| 2026-04-25 19:51 | 25.54781 | -100.71138 | 20724 ft | 323 kts | 88° |
| 2026-04-25 19:51 | 25.54796 | -100.68630 | 20208 ft | 328 kts | 88° |
| 2026-04-25 19:52 | 25.54815 | -100.66091 | 19698 ft | 330 kts | 88° |
| 2026-04-25 19:52 | 25.54832 | -100.63547 | 19197 ft | 330 kts | 88° |
| 2026-04-25 19:52 | 25.54846 | -100.61009 | 18698 ft | 329 kts | 88° |
| 2026-04-25 19:52 | 25.54860 | -100.58497 | 18190 ft | 323 kts | 88° |
| 2026-04-25 19:53 | 25.54874 | -100.56030 | 17586 ft | 317 kts | 88° |
| 2026-04-25 19:53 | 25.54886 | -100.53909 | 17059 ft | 312 kts | 89° |
| 2026-04-25 19:53 | 25.54900 | -100.51523 | 16484 ft | 308 kts | 89° |
| 2026-04-25 19:53 | 25.54913 | -100.49173 | 15910 ft | 303 kts | 89° |
| 2026-04-25 19:54 | 25.54920 | -100.47962 | 15637 ft | 303 kts | 89° |
| 2026-04-25 19:54 | 25.54929 | -100.46380 | 15260 ft | 306 kts | 89° |
| 2026-04-25 19:54 | 25.54937 | -100.44814 | 14915 ft | 308 kts | 90° |
| 2026-04-25 19:55 | 25.54954 | -100.40859 | 14040 ft | 310 kts | 90° |
| 2026-04-25 19:55 | 25.54965 | -100.38481 | 13509 ft | 308 kts | 90° |
| 2026-04-25 19:55 | 25.54974 | -100.36146 | 12920 ft | 297 kts | 90° |
| 2026-04-25 19:55 | 25.54984 | -100.33882 | 12393 ft | 291 kts | 90° |
| 2026-04-25 19:56 | 25.54991 | -100.32397 | 12357 ft | 281 kts | 90° |
| 2026-04-25 19:56 | 25.55005 | -100.29561 | 12350 ft | 278 kts | 90° |
| 2026-04-25 19:56 | 25.55010 | -100.28118 | 12341 ft | 276 kts | 90° |
| 2026-04-25 19:56 | 25.55105 | -100.26016 | 12343 ft | 274 kts | 79° |
| 2026-04-25 19:57 | 25.55799 | -100.24102 | 12336 ft | 272 kts | 56° |
| 2026-04-25 19:57 | 25.57082 | -100.22590 | 12340 ft | 269 kts | 34° |
| 2026-04-25 19:57 | 25.58646 | -100.21469 | 12343 ft | 268 kts | 29° |
| 2026-04-25 19:57 | 25.60270 | -100.20356 | 12197 ft | 274 kts | 29° |
| 2026-04-25 19:58 | 25.61871 | -100.19247 | 11999 ft | 277 kts | 30° |
| 2026-04-25 19:58 | 25.63505 | -100.18101 | 11814 ft | 279 kts | 30° |
| 2026-04-25 19:58 | 25.65170 | -100.16937 | 11623 ft | 280 kts | 30° |
| 2026-04-25 19:58 | 25.66796 | -100.15804 | 11438 ft | 280 kts | 30° |
| 2026-04-25 19:59 | 25.68443 | -100.14656 | 11249 ft | 279 kts | 30° |
| 2026-04-25 19:59 | 25.70086 | -100.13510 | 11063 ft | 279 kts | 30° |
| 2026-04-25 19:59 | 25.71724 | -100.12365 | 10874 ft | 278 kts | 30° |
| 2026-04-25 19:59 | 25.73357 | -100.11225 | 10681 ft | 277 kts | 30° |
| 2026-04-25 20:00 | 25.74977 | -100.10093 | 10415 ft | 274 kts | 30° |
| 2026-04-25 20:00 | 25.76065 | -100.09332 | 10245 ft | 273 kts | 30° |
| 2026-04-25 20:00 | 25.78181 | -100.07854 | 9895 ft | 271 kts | 30° |
| 2026-04-25 20:00 | 25.79760 | -100.06748 | 9508 ft | 267 kts | 31° |
| 2026-04-25 20:01 | 25.82873 | -100.04571 | 8632 ft | 263 kts | 31° |
| 2026-04-25 20:01 | 25.84415 | -100.03492 | 8170 ft | 261 kts | 31° |
| 2026-04-25 20:01 | 25.85945 | -100.02422 | 7766 ft | 258 kts | 31° |
| 2026-04-25 20:02 | 25.87453 | -100.01365 | 7386 ft | 255 kts | 31° |
| 2026-04-25 20:02 | 25.88955 | -100.00324 | 7047 ft | 254 kts | 29° |
| 2026-04-25 20:02 | 25.90633 | -99.99724 | 6577 ft | 256 kts | 5° |
| 2026-04-25 20:02 | 25.92385 | -99.99930 | 6103 ft | 254 kts | 342° |
| 2026-04-25 20:03 | 25.93884 | -100.00912 | 5661 ft | 250 kts | 317° |
| 2026-04-25 20:03 | 25.94947 | -100.02415 | 5247 ft | 246 kts | 303° |
| 2026-04-25 20:03 | 25.95863 | -100.04000 | 5075 ft | 238 kts | 302° |
| 2026-04-25 20:03 | 25.96734 | -100.05499 | 5071 ft | 230 kts | 303° |
| 2026-04-25 20:04 | 25.97609 | -100.07004 | 4760 ft | 233 kts | 303° |
| 2026-04-25 20:04 | 25.98482 | -100.08536 | 4403 ft | 231 kts | 302° |
| 2026-04-25 20:04 | 25.99339 | -100.10048 | 4048 ft | 231 kts | 301° |
| 2026-04-25 20:04 | 25.99887 | -100.11679 | 3689 ft | 230 kts | 277° |
| 2026-04-25 20:05 | 25.99745 | -100.13380 | 3479 ft | 211 kts | 250° |
| 2026-04-25 20:05 | 25.99065 | -100.14683 | 3486 ft | 181 kts | 225° |
| 2026-04-25 20:05 | 25.98142 | -100.15526 | 3488 ft | 170 kts | 212° |
| 2026-04-25 20:05 | 25.97138 | -100.16287 | 3493 ft | 181 kts | 209° |
| 2026-04-25 20:06 | 25.96048 | -100.17068 | 3470 ft | 186 kts | 211° |
| 2026-04-25 20:06 | 25.95025 | -100.17792 | 3324 ft | 166 kts | 208° |
| 2026-04-25 20:06 | 25.94077 | -100.18450 | 3122 ft | 158 kts | 209° |
| 2026-04-25 20:06 | 25.93130 | -100.19117 | 2911 ft | 160 kts | 211° |
| 2026-04-25 20:07 | 25.92234 | -100.19751 | 2744 ft | 146 kts | 210° |
| 2026-04-25 20:07 | 25.91399 | -100.20335 | 2558 ft | 139 kts | 209° |
| 2026-04-25 20:07 | 25.90605 | -100.20891 | 2381 ft | 127 kts | 207° |
| 2026-04-25 20:07 | 25.89912 | -100.21378 | 2205 ft | 112 kts | 206° |
| 2026-04-25 20:08 | 25.89288 | -100.21816 | 2046 ft | 105 kts | 208° |
| 2026-04-25 20:08 | 25.88664 | -100.22250 | 1885 ft | 106 kts | 211° |
| 2026-04-25 20:08 | 25.88035 | -100.22691 | 1724 ft | 107 kts | 208° |
| 2026-04-25 20:08 | 25.87396 | -100.23142 | 1580 ft | 106 kts | 206° |
| 2026-04-25 20:09 | 25.86835 | -100.23534 | 1481 ft | 84 kts | 204° |
| 2026-04-25 20:09 | 25.86434 | -100.23811 | 1478 ft | 48 kts | 212° |
| 2026-04-25 20:09 | 25.86227 | -100.23954 | 1477 ft | 29 kts | 214° |
| 2026-04-25 20:09 | 25.86158 | -100.24011 | 1474 ft | 6 kts | 225° |
| 2026-04-25 20:10 | 25.86112 | -100.24080 | 1480 ft | 15 kts | 255° |
| 2026-04-25 20:10 | 25.86088 | -100.24196 | 1480 ft | 14 kts | 257° |
| 2026-04-25 20:10 | 25.86074 | -100.24291 | 1480 ft | 8 kts | 284° |
| 2026-04-25 20:10 | 25.86122 | -100.24271 | 1477 ft | 10 kts | 37° |
| 2026-04-25 20:11 | 25.86172 | -100.24253 | 1480 ft | 8 kts | 292° |
| 2026-04-25 20:11 | 25.86189 | -100.24281 | 1480 ft | 0 kts | 345° |
| 2026-04-25 20:11 | 25.86187 | -100.24280 | 1480 ft | 1 kts | 346° |
| 2026-04-25 20:11 | 25.86186 | -100.24280 | 1480 ft | 2 kts | 356° |
| 2026-04-25 20:12 | 25.86187 | -100.24280 | 1480 ft | 0 kts | 1° |